Time;durP1;ratioP1;P1;durP2;ratioP2;P2;SDS_P1;SDS_P2;PMS_P1;PMS_P2;Temp;Humidity;BMP_temperature;BMP_pressure;BME280_temperature;BME280_humidity;BME280_pressure;Samples;Min_cycle;Max_cycle;Signal;HPM_P1;HPM_P2
2024/01/27 15:47:30;;;;;;;5.90;1.48;;;;;;;6.78;84.17;99996.31;3243553;22;20031;-90
2024/01/27 15:48:52;;;;;;;5.60;1.67;;;;;;;7.01;83.21;100000.91;3193777;23;20032;-92
2024/01/27 15:50:11;;;;;;;6.95;1.60;;;;;;;6.83;85.73;100003.31;3201261;23;20639;-89
2024/01/27 15:51:27;;;;;;;6.22;2.08;;;;;;;6.62;86.82;100005.66;3216341;23;20016;-92
2024/01/27 15:52:43;;;;;;;5.88;1.90;;;;;;;6.64;86.53;100011.75;3196976;23;20015;-93
2024/01/27 15:53:59;;;;;;;5.57;1.60;;;;;;;6.62;86.88;100016.06;3206649;23;20039;-91
2024/01/27 15:55:15;;;;;;;6.07;1.88;;;;;;;6.52;87.04;100018.53;3201056;23;20012;-91
2024/01/27 15:56:33;;;;;;;7.75;2.00;;;;;;;6.46;87.31;100021.91;3207718;23;20008;-92
2024/01/27 15:57:49;;;;;;;7.72;2.45;;;;;;;6.38;87.52;100021.78;3216874;23;20432;-93
2024/01/27 15:59:05;;;;;;;8.45;2.83;;;;;;;6.27;89.12;100020.75;3201280;23;20013;-90
2024/01/27 17:01:54;;;;;;;30.30;9.63;;;;;;;4.68;100.00;100100.00;3235324;22;20012;-90
2024/01/27 17:03:39;;;;;;;26.08;8.57;;;;;;;4.53;100.00;100106.59;3225116;23;20123;-92
2024/01/27 17:05:02;;;;;;;29.77;9.63;;;;;;;4.46;100.00;100104.69;3221671;23;20020;-92
2024/01/27 17:06:18;;;;;;;30.60;8.95;;;;;;;4.15;100.00;100115.19;3217062;23;20098;-91
2024/01/27 17:07:34;;;;;;;31.30;8.93;;;;;;;4.14;100.00;100108.25;3200960;23;20012;-93
2024/01/27 17:08:51;;;;;;;23.25;8.20;;;;;;;4.14;100.00;100104.78;3207552;23;20027;-93
2024/01/27 17:10:08;;;;;;;23.33;8.45;;;;;;;4.03;100.00;100118.34;3226490;23;20102;-93
2024/01/27 17:11:24;;;;;;;26.75;7.60;;;;;;;3.82;100.00;100110.88;3231701;22;20475;-95
2024/01/27 17:12:40;;;;;;;27.67;8.10;;;;;;;3.65;100.00;100113.91;3210273;23;20147;-94
2024/01/27 17:13:59;;;;;;;26.58;7.93;;;;;;;3.45;100.00;100117.66;3223092;22;20448;-90
2024/01/27 17:15:15;;;;;;;19.55;7.30;;;;;;;3.77;100.00;100112.50;3219104;23;20012;-92
2024/01/27 17:16:31;;;;;;;19.10;7.35;;;;;;;3.73;100.00;100113.25;3192161;23;20099;-92
2024/01/27 17:17:47;;;;;;;19.67;7.45;;;;;;;3.78;100.00;100109.94;3207978;23;20012;-93
2024/01/27 17:36:07;;;;;;;12.35;4.05;;;;;;;3.95;100.00;100106.91;3226165;22;20028;-91
2024/01/27 17:37:23;;;;;;;8.75;3.22;;;;;;;4.03;100.00;100113.16;3194012;23;20029;-92
2024/01/27 17:38:39;;;;;;;12.38;3.58;;;;;;;4.06;100.00;100113.25;3200182;23;20088;-93
2024/01/27 17:39:55;;;;;;;7.00;3.10;;;;;;;4.00;100.00;100118.28;3185048;23;20601;-93
2024/01/27 17:41:11;;;;;;;10.82;3.03;;;;;;;4.06;100.00;100105.47;3199551;23;20013;-92
2024/01/27 19:03:26;;;;;;;8.02;2.97;;;;;;;1.34;100.00;100220.19;3239943;22;20036;-91
2024/01/27 19:04:42;;;;;;;10.80;3.42;;;;;;;1.37;100.00;100221.22;3226458;23;20030;-91
2024/01/27 19:05:58;;;;;;;11.32;3.97;;;;;;;1.54;100.00;100214.09;3209582;23;20095;-91
2024/01/27 19:07:14;;;;;;;8.70;3.42;;;;;;;1.66;100.00;100213.66;3190947;23;20016;-91
2024/01/27 19:08:31;;;;;;;17.83;4.10;;;;;;;1.66;100.00;100218.84;3221877;22;20011;-92
2024/01/27 19:09:47;;;;;;;10.15;4.00;;;;;;;1.05;100.00;100222.53;3226341;22;20095;-92
2024/01/27 19:11:03;;;;;;;12.10;3.95;;;;;;;0.96;100.00;100226.50;3200992;23;20044;-91
2024/01/27 19:12:19;;;;;;;13.00;4.68;;;;;;;1.12;100.00;100220.25;3192054;23;20036;-91
2024/01/27 19:13:35;;;;;;;12.95;4.32;;;;;;;1.43;100.00;100222.25;3192566;23;20376;-91
2024/01/27 19:14:51;;;;;;;15.68;4.50;;;;;;;1.62;100.00;100222.13;3192228;23;20091;-91
2024/01/27 19:16:08;;;;;;;8.88;4.45;;;;;;;1.25;100.00;100224.19;3207627;23;20035;-91
2024/01/27 19:17:27;;;;;;;13.20;4.57;;;;;;;0.91;100.00;100227.13;3201386;23;20048;-91
2024/01/27 19:18:43;;;;;;;14.13;4.20;;;;;;;0.88;100.00;100229.59;3208374;23;20023;-90
2024/01/27 19:19:59;;;;;;;16.20;5.07;;;;;;;0.83;100.00;100238.03;3200865;23;20065;-92
2024/01/27 19:21:15;;;;;;;9.73;4.55;;;;;;;1.10;100.00;100231.31;3207772;23;20483;-93
2024/01/27 19:22:31;;;;;;;15.30;5.93;;;;;;;1.30;100.00;100237.25;3201902;23;20008;-91
2024/01/27 19:23:47;;;;;;;17.42;4.53;;;;;;;1.20;100.00;100233.44;3192524;23;20499;-91
2024/01/27 19:25:04;;;;;;;11.00;4.47;;;;;;;0.98;100.00;100232.63;3191706;23;20456;-92
2024/01/27 19:26:21;;;;;;;9.80;3.72;;;;;;;0.80;100.00;100243.06;3192520;23;20091;-91
2024/01/27 19:27:37;;;;;;;9.13;3.20;;;;;;;0.89;100.00;100242.56;3192035;23;20028;-91
2024/01/27 19:28:53;;;;;;;7.32;3.10;;;;;;;0.98;100.00;100242.03;3193605;23;20532;-91
2024/01/27 19:30:09;;;;;;;8.18;2.67;;;;;;;1.17;100.00;100233.34;3196097;23;20036;-91
2024/01/27 19:31:25;;;;;;;8.18;3.47;;;;;;;1.41;100.00;100232.53;3195950;23;20108;-91
2024/01/27 19:32:43;;;;;;;6.55;2.85;;;;;;;1.36;100.00;100237.53;3195489;23;20196;-92
2024/01/27 19:33:59;;;;;;;8.20;3.67;;;;;;;1.15;100.00;100236.66;3204202;23;20051;-91
2024/01/27 19:35:17;;;;;;;9.50;3.40;;;;;;;0.93;100.00;100236.69;3194150;23;20139;-92
2024/01/27 19:36:33;;;;;;;7.70;3.00;;;;;;;0.92;100.00;100239.25;3191740;23;20016;-91
2024/01/27 19:37:52;;;;;;;6.38;3.78;;;;;;;0.75;100.00;100249.72;3192910;23;20023;-91
2024/01/27 19:39:10;;;;;;;10.00;4.43;;;;;;;0.97;100.00;100246.31;3192500;23;20059;-91
2024/01/27 19:40:26;;;;;;;9.68;3.88;;;;;;;0.64;100.00;100246.72;3192237;23;20095;-91
2024/01/27 19:41:44;;;;;;;8.55;3.40;;;;;;;0.40;100.00;100242.28;3201979;23;20023;-91
2024/01/27 21:09:41;;;;;;;10.52;4.50;;;;;;;0.07;100.00;100304.41;3236687;22;20269;-92
2024/01/27 21:10:57;;;;;;;10.27;4.90;;;;;;;0.06;100.00;100291.47;3209609;23;20020;-92
2024/01/27 21:12:13;;;;;;;10.55;4.60;;;;;;;0.06;100.00;100302.66;3191693;23;20418;-92
2024/01/27 21:13:30;;;;;;;16.63;5.75;;;;;;;0.06;100.00;100294.03;3206685;23;20348;-92
2024/01/27 21:14:47;;;;;;;17.40;6.90;;;;;;;0.11;100.00;100301.16;3210590;23;20044;-92
2024/01/27 21:57:26;;;;;;;37.75;16.40;;;;;;;-0.44;100.00;100291.81;3238003;22;20027;-93
2024/01/27 21:58:44;;;;;;;43.92;16.73;;;;;;;-0.56;100.00;100297.25;3208789;23;20051;-92
2024/01/27 22:00:00;;;;;;;42.30;16.83;;;;;;;-0.58;100.00;100302.34;3191892;23;20016;-92
2024/01/27 22:01:16;;;;;;;37.92;15.48;;;;;;;-0.62;100.00;100296.97;3207100;23;20441;-91
2024/01/27 22:02:35;;;;;;;42.88;15.52;;;;;;;-0.62;100.00;100297.88;3200831;23;20015;-91
2024/01/27 22:03:51;;;;;;;35.47;15.07;;;;;;;-0.67;100.00;100298.47;3206999;23;20091;-92
2024/01/27 22:05:10;;;;;;;30.88;13.30;;;;;;;-0.79;100.00;100293.59;3200533;23;20032;-92
2024/01/27 22:06:26;;;;;;;30.13;11.55;;;;;;;-0.89;100.00;100297.44;3206940;23;20074;-92
2024/01/27 22:40:28;;;;;;;16.83;6.05;;;;;;;-1.07;100.00;100305.13;3242835;22;20024;-91
2024/01/27 22:41:45;;;;;;;11.50;4.80;;;;;;;-1.04;100.00;100311.31;3241861;22;20065;-91
2024/01/27 22:43:03;;;;;;;13.55;5.50;;;;;;;-1.10;100.00;100308.44;3216868;23;20039;-91
2024/01/27 22:44:19;;;;;;;12.60;4.65;;;;;;;-1.24;100.00;100306.88;3208249;23;20039;-91
2024/01/27 22:45:35;;;;;;;11.48;4.80;;;;;;;-1.16;100.00;100310.69;3207766;23;20012;-91
